sensor_id;sensor_type;location;lat;lon;timestamp;P1;durP1;ratioP1;P2;durP2;ratioP2
568;SDS011;269;48.884;9.192;2022-11-21T00:00:10;1.10;;;0.90;;
568;SDS011;269;48.884;9.192;2022-11-21T00:02:38;0.80;;;0.70;;
568;SDS011;269;48.884;9.192;2022-11-21T00:05:05;0.90;;;0.70;;
568;SDS011;269;48.884;9.192;2022-11-21T00:07:34;1.52;;;0.70;;
568;SDS011;269;48.884;9.192;2022-11-21T00:10:03;1.27;;;0.80;;
568;SDS011;269;48.884;9.192;2022-11-21T00:12:30;1.00;;;0.90;;
568;SDS011;269;48.884;9.192;2022-11-21T00:14:58;1.17;;;0.80;;
568;SDS011;269;48.884;9.192;2022-11-21T00:17:25;1.02;;;0.70;;
568;SDS011;269;48.884;9.192;2022-11-21T00:19:52;1.10;;;0.80;;
568;SDS011;269;48.884;9.192;2022-11-21T00:22:19;0.98;;;0.65;;
568;SDS011;269;48.884;9.192;2022-11-21T00:24:46;1.65;;;1.00;;
568;SDS011;269;48.884;9.192;2022-11-21T00:27:15;0.90;;;0.70;;
568;SDS011;269;48.884;9.192;2022-11-21T00:29:42;1.00;;;0.63;;
568;SDS011;269;48.884;9.192;2022-11-21T00:32:09;1.40;;;0.90;;
568;SDS011;269;48.884;9.192;2022-11-21T00:34:37;2.58;;;1.10;;
568;SDS011;269;48.884;9.192;2022-11-21T00:37:05;0.70;;;0.65;;
568;SDS011;269;48.884;9.192;2022-11-21T00:39:33;0.65;;;0.60;;
568;SDS011;269;48.884;9.192;2022-11-21T00:42:00;1.27;;;0.70;;
568;SDS011;269;48.884;9.192;2022-11-21T00:44:29;0.90;;;0.90;;
568;SDS011;269;48.884;9.192;2022-11-21T00:46:56;1.10;;;0.90;;
568;SDS011;269;48.884;9.192;2022-11-21T00:49:23;1.00;;;0.85;;
568;SDS011;269;48.884;9.192;2022-11-21T00:51:52;1.08;;;0.77;;
568;SDS011;269;48.884;9.192;2022-11-21T00:54:19;2.25;;;0.82;;
568;SDS011;269;48.884;9.192;2022-11-21T00:56:46;1.73;;;0.80;;
568;SDS011;269;48.884;9.192;2022-11-21T00:59:13;1.13;;;0.70;;
568;SDS011;269;48.884;9.192;2022-11-21T01:01:42;1.45;;;0.60;;
568;SDS011;269;48.884;9.192;2022-11-21T01:04:09;1.05;;;0.50;;
568;SDS011;269;48.884;9.192;2022-11-21T01:06:37;0.90;;;0.60;;
568;SDS011;269;48.884;9.192;2022-11-21T01:09:04;1.60;;;0.80;;
568;SDS011;269;48.884;9.192;2022-11-21T01:11:31;1.17;;;0.80;;
568;SDS011;269;48.884;9.192;2022-11-21T01:13:58;0.80;;;0.70;;
568;SDS011;269;48.884;9.192;2022-11-21T01:16:26;0.85;;;0.70;;
568;SDS011;269;48.884;9.192;2022-11-21T01:18:55;1.08;;;0.68;;
568;SDS011;269;48.884;9.192;2022-11-21T01:21:24;0.80;;;0.60;;
568;SDS011;269;48.884;9.192;2022-11-21T01:23:53;0.98;;;0.70;;
568;SDS011;269;48.884;9.192;2022-11-21T01:26:21;0.70;;;0.50;;
568;SDS011;269;48.884;9.192;2022-11-21T01:28:49;0.80;;;0.60;;
568;SDS011;269;48.884;9.192;2022-11-21T01:31:17;2.20;;;1.00;;
568;SDS011;269;48.884;9.192;2022-11-21T01:33:45;3.67;;;1.00;;
568;SDS011;269;48.884;9.192;2022-11-21T01:36:15;3.05;;;0.88;;
568;SDS011;269;48.884;9.192;2022-11-21T01:38:44;1.90;;;0.90;;
568;SDS011;269;48.884;9.192;2022-11-21T01:41:13;1.75;;;0.73;;
568;SDS011;269;48.884;9.192;2022-11-21T01:43:42;1.00;;;0.90;;
568;SDS011;269;48.884;9.192;2022-11-21T01:46:10;2.72;;;0.80;;
568;SDS011;269;48.884;9.192;2022-11-21T01:48:40;1.80;;;0.80;;
568;SDS011;269;48.884;9.192;2022-11-21T01:51:18;1.65;;;0.90;;
568;SDS011;269;48.884;9.192;2022-11-21T01:53:54;1.13;;;0.75;;
568;SDS011;269;48.884;9.192;2022-11-21T01:56:25;0.93;;;0.80;;
568;SDS011;269;48.884;9.192;2022-11-21T01:58:55;4.63;;;1.33;;
568;SDS011;269;48.884;9.192;2022-11-21T02:01:26;2.55;;;0.90;;
568;SDS011;269;48.884;9.192;2022-11-21T02:03:55;2.33;;;1.05;;
568;SDS011;269;48.884;9.192;2022-11-21T02:06:24;1.30;;;0.80;;
568;SDS011;269;48.884;9.192;2022-11-21T02:08:53;4.35;;;0.95;;
568;SDS011;269;48.884;9.192;2022-11-21T02:11:24;4.45;;;1.00;;
568;SDS011;269;48.884;9.192;2022-11-21T02:13:55;1.00;;;0.80;;
568;SDS011;269;48.884;9.192;2022-11-21T02:16:23;2.05;;;1.00;;
568;SDS011;269;48.884;9.192;2022-11-21T02:18:51;5.80;;;2.40;;
568;SDS011;269;48.884;9.192;2022-11-21T02:21:20;2.17;;;1.05;;
568;SDS011;269;48.884;9.192;2022-11-21T02:23:56;2.58;;;0.90;;
568;SDS011;269;48.884;9.192;2022-11-21T02:26:28;1.85;;;0.98;;
568;SDS011;269;48.884;9.192;2022-11-21T02:28:56;1.58;;;1.10;;
568;SDS011;269;48.884;9.192;2022-11-21T02:31:24;1.52;;;0.90;;
568;SDS011;269;48.884;9.192;2022-11-21T02:33:51;1.25;;;0.95;;
568;SDS011;269;48.884;9.192;2022-11-21T02:36:26;2.45;;;0.82;;
568;SDS011;269;48.884;9.192;2022-11-21T02:39:09;1.77;;;1.10;;
568;SDS011;269;48.884;9.192;2022-11-21T02:41:44;2.33;;;0.80;;
568;SDS011;269;48.884;9.192;2022-11-21T02:44:23;2.10;;;1.02;;
568;SDS011;269;48.884;9.192;2022-11-21T02:46:54;2.92;;;1.00;;
568;SDS011;269;48.884;9.192;2022-11-21T02:49:27;0.90;;;0.60;;
568;SDS011;269;48.884;9.192;2022-11-21T02:52:00;2.50;;;1.15;;
568;SDS011;269;48.884;9.192;2022-11-21T02:54:27;1.90;;;0.60;;
568;SDS011;269;48.884;9.192;2022-11-21T02:56:56;1.02;;;0.70;;
568;SDS011;269;48.884;9.192;2022-11-21T02:59:23;1.08;;;0.60;;
568;SDS011;269;48.884;9.192;2022-11-21T03:01:50;1.73;;;1.00;;
568;SDS011;269;48.884;9.192;2022-11-21T03:04:17;1.38;;;0.70;;
568;SDS011;269;48.884;9.192;2022-11-21T03:06:45;1.88;;;0.68;;
568;SDS011;269;48.884;9.192;2022-11-21T03:09:12;0.82;;;0.60;;
568;SDS011;269;48.884;9.192;2022-11-21T03:11:39;0.80;;;0.65;;
568;SDS011;269;48.884;9.192;2022-11-21T03:14:09;1.33;;;0.60;;
568;SDS011;269;48.884;9.192;2022-11-21T03:16:36;1.10;;;0.70;;
568;SDS011;269;48.884;9.192;2022-11-21T03:19:03;1.25;;;0.70;;
568;SDS011;269;48.884;9.192;2022-11-21T03:21:30;0.60;;;0.50;;
568;SDS011;269;48.884;9.192;2022-11-21T03:23:58;0.60;;;0.60;;
568;SDS011;269;48.884;9.192;2022-11-21T03:26:25;0.70;;;0.57;;
568;SDS011;269;48.884;9.192;2022-11-21T03:28:53;2.25;;;0.60;;
568;SDS011;269;48.884;9.192;2022-11-21T03:31:21;0.70;;;0.50;;
568;SDS011;269;48.884;9.192;2022-11-21T03:33:48;1.95;;;0.60;;
568;SDS011;269;48.884;9.192;2022-11-21T03:36:16;1.63;;;0.60;;
568;SDS011;269;48.884;9.192;2022-11-21T03:38:43;1.13;;;0.70;;
568;SDS011;269;48.884;9.192;2022-11-21T03:41:10;0.80;;;0.70;;
568;SDS011;269;48.884;9.192;2022-11-21T03:43:51;2.55;;;0.98;;
568;SDS011;269;48.884;9.192;2022-11-21T03:46:18;1.15;;;0.60;;
568;SDS011;269;48.884;9.192;2022-11-21T03:48:47;0.90;;;0.60;;
568;SDS011;269;48.884;9.192;2022-11-21T03:51:15;0.95;;;0.70;;
568;SDS011;269;48.884;9.192;2022-11-21T03:53:42;0.70;;;0.60;;
568;SDS011;269;48.884;9.192;2022-11-21T03:56:09;0.75;;;0.70;;
568;SDS011;269;48.884;9.192;2022-11-21T03:58:36;1.08;;;0.73;;
568;SDS011;269;48.884;9.192;2022-11-21T04:01:04;1.35;;;0.82;;
568;SDS011;269;48.884;9.192;2022-11-21T04:03:31;0.77;;;0.68;;
568;SDS011;269;48.884;9.192;2022-11-21T04:06:00;1.00;;;0.82;;
568;SDS011;269;48.884;9.192;2022-11-21T04:08:27;0.95;;;0.60;;
568;SDS011;269;48.884;9.192;2022-11-21T04:10:54;0.93;;;0.70;;
568;SDS011;269;48.884;9.192;2022-11-21T04:13:22;0.70;;;0.60;;
568;SDS011;269;48.884;9.192;2022-11-21T04:15:49;1.55;;;0.68;;
568;SDS011;269;48.884;9.192;2022-11-21T04:18:17;1.40;;;0.52;;
568;SDS011;269;48.884;9.192;2022-11-21T04:20:45;1.35;;;0.95;;
568;SDS011;269;48.884;9.192;2022-11-21T04:23:13;0.85;;;0.57;;
568;SDS011;269;48.884;9.192;2022-11-21T04:25:40;2.55;;;0.60;;
568;SDS011;269;48.884;9.192;2022-11-21T04:28:11;1.05;;;0.60;;
568;SDS011;269;48.884;9.192;2022-11-21T04:30:38;1.05;;;0.70;;
568;SDS011;269;48.884;9.192;2022-11-21T04:33:05;0.70;;;0.63;;
568;SDS011;269;48.884;9.192;2022-11-21T04:35:33;1.25;;;0.60;;
568;SDS011;269;48.884;9.192;2022-11-21T04:38:00;0.73;;;0.60;;
568;SDS011;269;48.884;9.192;2022-11-21T04:40:29;1.42;;;0.65;;
568;SDS011;269;48.884;9.192;2022-11-21T04:42:57;0.88;;;0.70;;
568;SDS011;269;48.884;9.192;2022-11-21T04:45:24;0.85;;;0.70;;
568;SDS011;269;48.884;9.192;2022-11-21T04:47:51;1.45;;;0.80;;
568;SDS011;269;48.884;9.192;2022-11-21T04:50:19;1.45;;;0.70;;
568;SDS011;269;48.884;9.192;2022-11-21T04:52:48;0.90;;;0.70;;
568;SDS011;269;48.884;9.192;2022-11-21T04:55:15;1.02;;;0.82;;
568;SDS011;269;48.884;9.192;2022-11-21T04:57:44;1.83;;;0.93;;
568;SDS011;269;48.884;9.192;2022-11-21T05:00:12;1.23;;;0.70;;
568;SDS011;269;48.884;9.192;2022-11-21T05:02:41;1.85;;;0.80;;
568;SDS011;269;48.884;9.192;2022-11-21T05:05:08;1.92;;;1.10;;
568;SDS011;269;48.884;9.192;2022-11-21T05:07:35;1.23;;;1.13;;
568;SDS011;269;48.884;9.192;2022-11-21T05:10:04;1.70;;;1.20;;
568;SDS011;269;48.884;9.192;2022-11-21T05:12:32;3.42;;;1.80;;
568;SDS011;269;48.884;9.192;2022-11-21T05:15:19;2.17;;;1.50;;
568;SDS011;269;48.884;9.192;2022-11-21T05:17:47;1.55;;;1.45;;
568;SDS011;269;48.884;9.192;2022-11-21T05:20:14;2.55;;;1.60;;
568;SDS011;269;48.884;9.192;2022-11-21T05:22:42;3.60;;;1.83;;
568;SDS011;269;48.884;9.192;2022-11-21T05:25:14;2.25;;;1.20;;
568;SDS011;269;48.884;9.192;2022-11-21T05:27:41;2.10;;;1.73;;
568;SDS011;269;48.884;9.192;2022-11-21T05:30:09;3.72;;;1.80;;
568;SDS011;269;48.884;9.192;2022-11-21T05:32:41;2.72;;;1.70;;
568;SDS011;269;48.884;9.192;2022-11-21T05:35:09;3.33;;;2.00;;
568;SDS011;269;48.884;9.192;2022-11-21T05:37:35;3.45;;;1.80;;
568;SDS011;269;48.884;9.192;2022-11-21T05:40:03;4.07;;;2.05;;
568;SDS011;269;48.884;9.192;2022-11-21T05:42:31;3.58;;;1.70;;
568;SDS011;269;48.884;9.192;2022-11-21T05:45:16;3.60;;;1.67;;
568;SDS011;269;48.884;9.192;2022-11-21T05:47:44;3.35;;;1.60;;
568;SDS011;269;48.884;9.192;2022-11-21T05:50:11;3.78;;;1.70;;
568;SDS011;269;48.884;9.192;2022-11-21T05:52:39;3.35;;;2.05;;
568;SDS011;269;48.884;9.192;2022-11-21T05:55:06;8.18;;;1.92;;
568;SDS011;269;48.884;9.192;2022-11-21T05:57:33;2.90;;;1.85;;
568;SDS011;269;48.884;9.192;2022-11-21T06:00:01;4.22;;;1.65;;
568;SDS011;269;48.884;9.192;2022-11-21T06:02:28;3.72;;;2.00;;
568;SDS011;269;48.884;9.192;2022-11-21T06:05:15;2.85;;;1.85;;
568;SDS011;269;48.884;9.192;2022-11-21T06:07:42;3.90;;;1.60;;
568;SDS011;269;48.884;9.192;2022-11-21T06:10:09;3.15;;;1.65;;
568;SDS011;269;48.884;9.192;2022-11-21T06:12:37;4.15;;;1.83;;
568;SDS011;269;48.884;9.192;2022-11-21T06:15:05;2.50;;;1.70;;
568;SDS011;269;48.884;9.192;2022-11-21T06:17:33;2.65;;;1.67;;
568;SDS011;269;48.884;9.192;2022-11-21T06:20:00;4.65;;;1.90;;
568;SDS011;269;48.884;9.192;2022-11-21T06:22:28;1.98;;;1.35;;
568;SDS011;269;48.884;9.192;2022-11-21T06:24:56;2.38;;;1.77;;
568;SDS011;269;48.884;9.192;2022-11-21T06:27:24;4.07;;;1.50;;
568;SDS011;269;48.884;9.192;2022-11-21T06:29:51;2.60;;;1.50;;
568;SDS011;269;48.884;9.192;2022-11-21T06:32:18;4.32;;;1.70;;
568;SDS011;269;48.884;9.192;2022-11-21T06:34:45;3.70;;;1.55;;
568;SDS011;269;48.884;9.192;2022-11-21T06:37:13;3.45;;;1.40;;
568;SDS011;269;48.884;9.192;2022-11-21T06:39:41;2.55;;;1.50;;
568;SDS011;269;48.884;9.192;2022-11-21T06:42:09;3.40;;;1.60;;
568;SDS011;269;48.884;9.192;2022-11-21T06:44:36;4.18;;;1.55;;
568;SDS011;269;48.884;9.192;2022-11-21T06:47:03;2.85;;;1.50;;
568;SDS011;269;48.884;9.192;2022-11-21T06:49:30;2.45;;;1.60;;
568;SDS011;269;48.884;9.192;2022-11-21T06:51:57;3.92;;;1.60;;
568;SDS011;269;48.884;9.192;2022-11-21T06:54:25;7.40;;;1.90;;
568;SDS011;269;48.884;9.192;2022-11-21T06:56:54;2.63;;;1.42;;
568;SDS011;269;48.884;9.192;2022-11-21T06:59:23;3.40;;;1.67;;
568;SDS011;269;48.884;9.192;2022-11-21T07:01:50;3.97;;;1.92;;
568;SDS011;269;48.884;9.192;2022-11-21T07:04:18;6.15;;;1.98;;
568;SDS011;269;48.884;9.192;2022-11-21T07:06:46;2.72;;;1.55;;
568;SDS011;269;48.884;9.192;2022-11-21T07:09:12;3.22;;;1.60;;
568;SDS011;269;48.884;9.192;2022-11-21T07:11:40;2.53;;;1.58;;
568;SDS011;269;48.884;9.192;2022-11-21T07:14:09;2.42;;;1.50;;
568;SDS011;269;48.884;9.192;2022-11-21T07:16:35;6.32;;;1.80;;
568;SDS011;269;48.884;9.192;2022-11-21T07:19:03;3.47;;;1.50;;
568;SDS011;269;48.884;9.192;2022-11-21T07:21:30;3.67;;;1.38;;
568;SDS011;269;48.884;9.192;2022-11-21T07:23:57;1.98;;;1.30;;
568;SDS011;269;48.884;9.192;2022-11-21T07:26:24;4.10;;;1.50;;
568;SDS011;269;48.884;9.192;2022-11-21T07:28:52;2.97;;;1.20;;
568;SDS011;269;48.884;9.192;2022-11-21T07:31:20;2.05;;;1.70;;
568;SDS011;269;48.884;9.192;2022-11-21T07:33:48;4.38;;;1.50;;
568;SDS011;269;48.884;9.192;2022-11-21T07:36:15;1.50;;;1.30;;
568;SDS011;269;48.884;9.192;2022-11-21T07:38:44;1.70;;;1.50;;
568;SDS011;269;48.884;9.192;2022-11-21T07:41:12;4.45;;;1.42;;
568;SDS011;269;48.884;9.192;2022-11-21T07:43:39;4.75;;;1.80;;
568;SDS011;269;48.884;9.192;2022-11-21T07:46:06;2.40;;;1.42;;
568;SDS011;269;48.884;9.192;2022-11-21T07:48:34;2.00;;;1.50;;
568;SDS011;269;48.884;9.192;2022-11-21T07:51:02;5.20;;;2.00;;
568;SDS011;269;48.884;9.192;2022-11-21T07:53:30;2.03;;;1.40;;
568;SDS011;269;48.884;9.192;2022-11-21T07:55:58;7.35;;;2.13;;
568;SDS011;269;48.884;9.192;2022-11-21T07:58:25;2.55;;;1.80;;
568;SDS011;269;48.884;9.192;2022-11-21T08:00:52;3.33;;;1.50;;
568;SDS011;269;48.884;9.192;2022-11-21T08:03:20;3.75;;;1.98;;
568;SDS011;269;48.884;9.192;2022-11-21T08:05:50;2.95;;;1.83;;
568;SDS011;269;48.884;9.192;2022-11-21T08:08:17;3.05;;;1.75;;
568;SDS011;269;48.884;9.192;2022-11-21T08:10:45;4.68;;;1.80;;
568;SDS011;269;48.884;9.192;2022-11-21T08:13:12;2.35;;;1.90;;
568;SDS011;269;48.884;9.192;2022-11-21T08:15:40;7.68;;;1.58;;
568;SDS011;269;48.884;9.192;2022-11-21T08:18:07;2.95;;;1.33;;
568;SDS011;269;48.884;9.192;2022-11-21T08:20:35;2.25;;;1.42;;
568;SDS011;269;48.884;9.192;2022-11-21T08:23:04;4.70;;;1.95;;
568;SDS011;269;48.884;9.192;2022-11-21T08:25:32;2.88;;;1.30;;
568;SDS011;269;48.884;9.192;2022-11-21T08:27:59;3.78;;;1.38;;
568;SDS011;269;48.884;9.192;2022-11-21T08:30:27;3.72;;;1.85;;
568;SDS011;269;48.884;9.192;2022-11-21T08:32:56;2.40;;;1.55;;
568;SDS011;269;48.884;9.192;2022-11-21T08:35:23;7.90;;;2.03;;
568;SDS011;269;48.884;9.192;2022-11-21T08:37:54;4.35;;;1.70;;
568;SDS011;269;48.884;9.192;2022-11-21T08:40:24;2.60;;;1.40;;
568;SDS011;269;48.884;9.192;2022-11-21T08:42:55;4.53;;;1.30;;
568;SDS011;269;48.884;9.192;2022-11-21T08:45:22;3.08;;;1.60;;
568;SDS011;269;48.884;9.192;2022-11-21T08:47:50;3.80;;;1.45;;
568;SDS011;269;48.884;9.192;2022-11-21T08:50:17;3.17;;;1.20;;
568;SDS011;269;48.884;9.192;2022-11-21T08:52:44;2.97;;;1.15;;
568;SDS011;269;48.884;9.192;2022-11-21T08:55:12;5.63;;;1.40;;
568;SDS011;269;48.884;9.192;2022-11-21T08:57:40;3.33;;;1.70;;
568;SDS011;269;48.884;9.192;2022-11-21T09:00:09;3.17;;;1.50;;
568;SDS011;269;48.884;9.192;2022-11-21T09:02:37;2.63;;;1.33;;
568;SDS011;269;48.884;9.192;2022-11-21T09:05:06;2.90;;;1.20;;
568;SDS011;269;48.884;9.192;2022-11-21T09:07:34;1.90;;;1.33;;
568;SDS011;269;48.884;9.192;2022-11-21T09:10:01;6.43;;;1.60;;
568;SDS011;269;48.884;9.192;2022-11-21T09:12:29;3.78;;;1.40;;
568;SDS011;269;48.884;9.192;2022-11-21T09:14:58;3.47;;;1.30;;
568;SDS011;269;48.884;9.192;2022-11-21T09:17:42;5.75;;;1.75;;
568;SDS011;269;48.884;9.192;2022-11-21T09:20:27;3.40;;;1.40;;
568;SDS011;269;48.884;9.192;2022-11-21T09:22:55;3.30;;;1.45;;
568;SDS011;269;48.884;9.192;2022-11-21T09:25:22;2.53;;;1.40;;
568;SDS011;269;48.884;9.192;2022-11-21T09:27:49;3.45;;;1.40;;
568;SDS011;269;48.884;9.192;2022-11-21T09:30:18;3.63;;;1.67;;
568;SDS011;269;48.884;9.192;2022-11-21T09:32:45;5.28;;;1.42;;
568;SDS011;269;48.884;9.192;2022-11-21T09:35:12;3.15;;;1.30;;
568;SDS011;269;48.884;9.192;2022-11-21T09:37:39;4.28;;;1.45;;
568;SDS011;269;48.884;9.192;2022-11-21T09:40:09;4.68;;;1.88;;
568;SDS011;269;48.884;9.192;2022-11-21T09:45:43;6.68;;;1.55;;
568;SDS011;269;48.884;9.192;2022-11-21T09:48:14;6.05;;;1.75;;
568;SDS011;269;48.884;9.192;2022-11-21T09:50:48;2.90;;;1.70;;
568;SDS011;269;48.884;9.192;2022-11-21T09:53:20;2.92;;;1.85;;
568;SDS011;269;48.884;9.192;2022-11-21T09:55:50;3.20;;;1.55;;
568;SDS011;269;48.884;9.192;2022-11-21T09:58:23;5.78;;;1.60;;
568;SDS011;269;48.884;9.192;2022-11-21T10:00:56;4.03;;;1.42;;
568;SDS011;269;48.884;9.192;2022-11-21T10:03:26;4.70;;;1.60;;
568;SDS011;269;48.884;9.192;2022-11-21T10:05:57;3.30;;;1.50;;
568;SDS011;269;48.884;9.192;2022-11-21T10:08:28;4.80;;;1.15;;
568;SDS011;269;48.884;9.192;2022-11-21T10:11:08;2.78;;;1.48;;
568;SDS011;269;48.884;9.192;2022-11-21T10:13:45;3.53;;;1.55;;
568;SDS011;269;48.884;9.192;2022-11-21T10:16:22;2.80;;;1.73;;
568;SDS011;269;48.884;9.192;2022-11-21T10:22:00;3.60;;;1.50;;
568;SDS011;269;48.884;9.192;2022-11-21T10:24:50;3.15;;;1.42;;
568;SDS011;269;48.884;9.192;2022-11-21T10:27:24;8.77;;;2.17;;
568;SDS011;269;48.884;9.192;2022-11-21T10:29:59;1.67;;;1.20;;
568;SDS011;269;48.884;9.192;2022-11-21T10:32:30;3.65;;;1.20;;
568;SDS011;269;48.884;9.192;2022-11-21T10:35:10;3.60;;;1.30;;
568;SDS011;269;48.884;9.192;2022-11-21T10:37:42;3.38;;;1.40;;
568;SDS011;269;48.884;9.192;2022-11-21T10:40:16;2.95;;;1.50;;
568;SDS011;269;48.884;9.192;2022-11-21T10:42:50;2.65;;;1.38;;
568;SDS011;269;48.884;9.192;2022-11-21T10:45:21;3.63;;;1.55;;
568;SDS011;269;48.884;9.192;2022-11-21T10:47:49;3.83;;;1.33;;
568;SDS011;269;48.884;9.192;2022-11-21T10:50:24;3.42;;;1.55;;
568;SDS011;269;48.884;9.192;2022-11-21T10:53:04;4.00;;;1.38;;
568;SDS011;269;48.884;9.192;2022-11-21T10:55:55;2.60;;;1.10;;
568;SDS011;269;48.884;9.192;2022-11-21T11:01:17;4.68;;;2.30;;
568;SDS011;269;48.884;9.192;2022-11-21T11:03:47;3.90;;;1.70;;
568;SDS011;269;48.884;9.192;2022-11-21T11:06:31;2.97;;;1.50;;
568;SDS011;269;48.884;9.192;2022-11-21T11:09:00;2.90;;;1.88;;
568;SDS011;269;48.884;9.192;2022-11-21T11:11:27;3.60;;;1.83;;
568;SDS011;269;48.884;9.192;2022-11-21T11:13:55;2.15;;;1.70;;
568;SDS011;269;48.884;9.192;2022-11-21T11:16:24;3.72;;;2.00;;
568;SDS011;269;48.884;9.192;2022-11-21T11:18:57;3.17;;;2.47;;
568;SDS011;269;48.884;9.192;2022-11-21T11:21:27;2.63;;;2.42;;
568;SDS011;269;48.884;9.192;2022-11-21T11:24:04;2.03;;;1.67;;
568;SDS011;269;48.884;9.192;2022-11-21T11:26:49;3.13;;;2.33;;
568;SDS011;269;48.884;9.192;2022-11-21T11:29:19;3.38;;;1.73;;
568;SDS011;269;48.884;9.192;2022-11-21T11:31:49;2.90;;;1.70;;
568;SDS011;269;48.884;9.192;2022-11-21T11:34:21;3.03;;;1.60;;
568;SDS011;269;48.884;9.192;2022-11-21T11:36:53;2.20;;;1.30;;
568;SDS011;269;48.884;9.192;2022-11-21T11:39:26;3.45;;;1.48;;
568;SDS011;269;48.884;9.192;2022-11-21T11:42:31;2.75;;;1.50;;
568;SDS011;269;48.884;9.192;2022-11-21T11:48:47;2.75;;;1.55;;
568;SDS011;269;48.884;9.192;2022-11-21T11:51:19;2.67;;;1.60;;
568;SDS011;269;48.884;9.192;2022-11-21T11:53:51;2.30;;;1.70;;
568;SDS011;269;48.884;9.192;2022-11-21T11:56:26;1.90;;;1.40;;
568;SDS011;269;48.884;9.192;2022-11-21T11:58:59;5.07;;;2.45;;
568;SDS011;269;48.884;9.192;2022-11-21T12:01:31;2.05;;;1.80;;
568;SDS011;269;48.884;9.192;2022-11-21T12:04:04;3.05;;;1.83;;
568;SDS011;269;48.884;9.192;2022-11-21T12:06:39;3.28;;;2.42;;
568;SDS011;269;48.884;9.192;2022-11-21T12:09:15;2.42;;;1.75;;
568;SDS011;269;48.884;9.192;2022-11-21T12:11:50;2.05;;;1.50;;
568;SDS011;269;48.884;9.192;2022-11-21T12:14:35;4.20;;;1.80;;
568;SDS011;269;48.884;9.192;2022-11-21T12:17:39;1.63;;;1.52;;
568;SDS011;269;48.884;9.192;2022-11-21T12:20:12;3.17;;;1.40;;
568;SDS011;269;48.884;9.192;2022-11-21T12:22:44;3.67;;;1.53;;
568;SDS011;269;48.884;9.192;2022-11-21T12:25:14;2.37;;;1.97;;
568;SDS011;269;48.884;9.192;2022-11-21T12:27:41;2.73;;;1.60;;
568;SDS011;269;48.884;9.192;2022-11-21T12:30:19;3.03;;;2.00;;
568;SDS011;269;48.884;9.192;2022-11-21T12:33:16;2.53;;;1.60;;
568;SDS011;269;48.884;9.192;2022-11-21T12:39:00;2.60;;;1.20;;
568;SDS011;269;48.884;9.192;2022-11-21T12:41:48;2.10;;;1.17;;
568;SDS011;269;48.884;9.192;2022-11-21T12:44:43;2.30;;;1.73;;
568;SDS011;269;48.884;9.192;2022-11-21T12:47:26;2.47;;;1.20;;
568;SDS011;269;48.884;9.192;2022-11-21T12:50:22;5.03;;;1.75;;
568;SDS011;269;48.884;9.192;2022-11-21T12:53:11;3.00;;;1.45;;
568;SDS011;269;48.884;9.192;2022-11-21T12:56:08;2.42;;;1.40;;
568;SDS011;269;48.884;9.192;2022-11-21T12:58:41;3.53;;;1.50;;
568;SDS011;269;48.884;9.192;2022-11-21T13:01:17;3.73;;;1.60;;
568;SDS011;269;48.884;9.192;2022-11-21T13:03:49;2.50;;;1.20;;
568;SDS011;269;48.884;9.192;2022-11-21T13:06:23;2.20;;;2.00;;
568;SDS011;269;48.884;9.192;2022-11-21T13:08:54;4.13;;;1.60;;
568;SDS011;269;48.884;9.192;2022-11-21T13:11:38;1.83;;;1.30;;
568;SDS011;269;48.884;9.192;2022-11-21T13:14:28;1.23;;;0.90;;
568;SDS011;269;48.884;9.192;2022-11-21T13:17:05;2.53;;;1.20;;
568;SDS011;269;48.884;9.192;2022-11-21T13:19:43;4.00;;;1.30;;
568;SDS011;269;48.884;9.192;2022-11-21T13:31:25;4.50;;;1.17;;
568;SDS011;269;48.884;9.192;2022-11-21T13:33:55;2.97;;;1.43;;
568;SDS011;269;48.884;9.192;2022-11-21T13:36:33;2.83;;;1.30;;
568;SDS011;269;48.884;9.192;2022-11-21T13:41:59;2.63;;;1.15;;
568;SDS011;269;48.884;9.192;2022-11-21T13:44:57;5.07;;;1.77;;
568;SDS011;269;48.884;9.192;2022-11-21T13:47:30;2.15;;;1.23;;
568;SDS011;269;48.884;9.192;2022-11-21T13:50:15;1.73;;;1.10;;
568;SDS011;269;48.884;9.192;2022-11-21T13:52:52;2.40;;;1.60;;
568;SDS011;269;48.884;9.192;2022-11-21T13:55:34;4.28;;;1.48;;
568;SDS011;269;48.884;9.192;2022-11-21T13:58:13;4.78;;;1.30;;
568;SDS011;269;48.884;9.192;2022-11-21T14:00:54;2.10;;;0.93;;
568;SDS011;269;48.884;9.192;2022-11-21T14:03:47;4.15;;;1.13;;
568;SDS011;269;48.884;9.192;2022-11-21T14:06:33;2.80;;;1.20;;
568;SDS011;269;48.884;9.192;2022-11-21T14:09:04;3.00;;;1.40;;
568;SDS011;269;48.884;9.192;2022-11-21T14:11:43;2.72;;;1.05;;
568;SDS011;269;48.884;9.192;2022-11-21T14:14:24;2.47;;;1.10;;
568;SDS011;269;48.884;9.192;2022-11-21T14:16:57;3.35;;;1.10;;
568;SDS011;269;48.884;9.192;2022-11-21T14:19:53;1.70;;;1.10;;
568;SDS011;269;48.884;9.192;2022-11-21T14:22:25;3.63;;;1.75;;
568;SDS011;269;48.884;9.192;2022-11-21T14:24:55;3.63;;;1.60;;
568;SDS011;269;48.884;9.192;2022-11-21T14:27:26;3.10;;;1.77;;
568;SDS011;269;48.884;9.192;2022-11-21T14:29:55;4.57;;;2.28;;
568;SDS011;269;48.884;9.192;2022-11-21T14:32:27;3.88;;;2.30;;
568;SDS011;269;48.884;9.192;2022-11-21T14:37:44;3.70;;;2.10;;
568;SDS011;269;48.884;9.192;2022-11-21T14:40:12;9.20;;;3.47;;
568;SDS011;269;48.884;9.192;2022-11-21T14:42:44;8.35;;;3.92;;
568;SDS011;269;48.884;9.192;2022-11-21T14:45:14;6.10;;;3.15;;
568;SDS011;269;48.884;9.192;2022-11-21T14:47:48;8.80;;;2.97;;
568;SDS011;269;48.884;9.192;2022-11-21T14:50:22;7.18;;;4.10;;
568;SDS011;269;48.884;9.192;2022-11-21T14:52:51;8.73;;;5.55;;
568;SDS011;269;48.884;9.192;2022-11-21T14:55:22;12.68;;;6.30;;
568;SDS011;269;48.884;9.192;2022-11-21T14:57:52;11.70;;;6.72;;
568;SDS011;269;48.884;9.192;2022-11-21T15:00:21;13.95;;;8.18;;
568;SDS011;269;48.884;9.192;2022-11-21T15:02:54;4.95;;;2.42;;
568;SDS011;269;48.884;9.192;2022-11-21T15:05:27;4.85;;;2.45;;
568;SDS011;269;48.884;9.192;2022-11-21T15:07:55;2.83;;;2.15;;
568;SDS011;269;48.884;9.192;2022-11-21T15:10:27;3.88;;;2.53;;
568;SDS011;269;48.884;9.192;2022-11-21T15:12:58;5.85;;;4.05;;
568;SDS011;269;48.884;9.192;2022-11-21T15:15:29;4.13;;;2.85;;
568;SDS011;269;48.884;9.192;2022-11-21T15:18:01;3.45;;;2.75;;
568;SDS011;269;48.884;9.192;2022-11-21T15:20:30;5.68;;;3.08;;
568;SDS011;269;48.884;9.192;2022-11-21T15:22:58;5.40;;;2.42;;
568;SDS011;269;48.884;9.192;2022-11-21T15:25:28;7.65;;;2.55;;
568;SDS011;269;48.884;9.192;2022-11-21T15:28:06;3.13;;;2.00;;
568;SDS011;269;48.884;9.192;2022-11-21T15:30:36;4.35;;;2.03;;
568;SDS011;269;48.884;9.192;2022-11-21T15:33:05;4.80;;;2.10;;
568;SDS011;269;48.884;9.192;2022-11-21T15:35:39;5.82;;;2.25;;
568;SDS011;269;48.884;9.192;2022-11-21T15:38:13;3.03;;;2.10;;
568;SDS011;269;48.884;9.192;2022-11-21T15:40:54;4.95;;;2.08;;
568;SDS011;269;48.884;9.192;2022-11-21T15:43:36;4.18;;;2.35;;
568;SDS011;269;48.884;9.192;2022-11-21T15:46:15;4.72;;;2.10;;
568;SDS011;269;48.884;9.192;2022-11-21T15:48:46;7.47;;;2.53;;
568;SDS011;269;48.884;9.192;2022-11-21T15:51:15;3.70;;;2.13;;
568;SDS011;269;48.884;9.192;2022-11-21T15:53:43;3.25;;;2.33;;
568;SDS011;269;48.884;9.192;2022-11-21T15:56:11;3.22;;;2.22;;
568;SDS011;269;48.884;9.192;2022-11-21T15:58:40;4.15;;;2.60;;
568;SDS011;269;48.884;9.192;2022-11-21T16:01:14;4.18;;;3.03;;
568;SDS011;269;48.884;9.192;2022-11-21T16:03:43;5.55;;;3.28;;
568;SDS011;269;48.884;9.192;2022-11-21T16:06:13;5.30;;;3.17;;
568;SDS011;269;48.884;9.192;2022-11-21T16:08:41;5.07;;;3.47;;
568;SDS011;269;48.884;9.192;2022-11-21T16:11:10;5.28;;;4.35;;
568;SDS011;269;48.884;9.192;2022-11-21T16:13:48;4.43;;;3.85;;
568;SDS011;269;48.884;9.192;2022-11-21T16:16:18;3.78;;;2.50;;
568;SDS011;269;48.884;9.192;2022-11-21T16:18:46;9.05;;;2.50;;
568;SDS011;269;48.884;9.192;2022-11-21T16:21:14;6.75;;;3.92;;
568;SDS011;269;48.884;9.192;2022-11-21T16:23:42;18.77;;;13.00;;
568;SDS011;269;48.884;9.192;2022-11-21T16:26:09;13.95;;;9.90;;
568;SDS011;269;48.884;9.192;2022-11-21T16:28:37;8.85;;;5.80;;
568;SDS011;269;48.884;9.192;2022-11-21T16:31:05;7.80;;;5.55;;
568;SDS011;269;48.884;9.192;2022-11-21T16:33:34;6.70;;;4.05;;
568;SDS011;269;48.884;9.192;2022-11-21T16:36:06;8.55;;;3.90;;
568;SDS011;269;48.884;9.192;2022-11-21T16:38:35;5.25;;;3.88;;